PWSweather.com
Personal Weather Stations
Station Observations
SBERGENWX
Wood Ridge, NJ 07075

Wood Ridge, NJ 07075

Lat: 40.851667, Lon: -74.088131

Elevation: 177

Station Type: Davis Vantage Vue

http://201weather.com/

High Low Average
Temperature 36.9°F2.7°C 25.4°F-3.7°C 31.1°F-0.5°C
Dew Point 32.8°F0.4°C 17.3°F-8.2°C 27.6°F-2.4°C
Winds 1.2 mph 1.9 kmh Calm Calm Calm SCalm S
Wind Gusts 3.5 mph5.6 kmh -- 1.0 mph1.6 kmh
Humidity 92% 60% 87%
Pressure 30.22 in1023.4 mb 30.03 in1016.9 mb -
Precipitation 0.02 in0.5 mm - -
Hour Temp Dew Point Humidity Winds Wind Gusts Pressure Precip Precip Rate Daily Precip Total
12:00 AM 29.5°F-1.4°C 17.3°F-8.2°C 60% Calm Calm 1.2 mph1.9 kmh 30.22 in1023.4 mb - 0.00 in0.0 mm 0.00 in0.0 mm
12:15 AM 28.9°F-1.7°C 19.3°F-7.1°C 67% Calm Calm -- 30.22 in1023.4 mb - 0.00 in0.0 mm 0.00 in0.0 mm
12:30 AM 28.3°F-2.1°C 19.8°F-6.8°C 70% Calm Calm 1.2 mph1.9 kmh 30.21 in1023.0 mb - 0.00 in0.0 mm 0.00 in0.0 mm
12:45 AM 27.9°F-2.3°C 20.0°F-6.7°C 72% Calm Calm 1.2 mph1.9 kmh 30.20 in1022.7 mb - 0.00 in0.0 mm 0.00 in0.0 mm
01:00 AM 27.5°F-2.5°C 20.9°F-6.2°C 76% Calm Calm 1.2 mph1.9 kmh 30.20 in1022.7 mb - 0.00 in0.0 mm 0.00 in0.0 mm
01:15 AM 27.0°F-2.8°C 21.7°F-5.7°C 80% Calm Calm 1.2 mph1.9 kmh 30.20 in1022.7 mb - 0.00 in0.0 mm 0.00 in0.0 mm
01:30 AM 26.6°F-3.0°C 22.1°F-5.5°C 83% 1.2 mph NE1.9 kmh NE 2.3 mph3.7 kmh 30.19 in1022.4 mb - 0.00 in0.0 mm 0.00 in0.0 mm
01:45 AM 26.1°F-3.3°C 21.9°F-5.6°C 84% Calm Calm 1.2 mph1.9 kmh 30.20 in1022.7 mb - 0.00 in0.0 mm 0.00 in0.0 mm
02:00 AM 25.7°F-3.5°C 22.1°F-5.5°C 86% Calm Calm -- 30.19 in1022.4 mb - 0.00 in0.0 mm 0.00 in0.0 mm
02:15 AM 25.6°F-3.6°C 22.5°F-5.3°C 88% Calm Calm 1.2 mph1.9 kmh 30.19 in1022.4 mb - 0.00 in0.0 mm 0.00 in0.0 mm
02:30 AM 25.7°F-3.5°C 22.9°F-5.1°C 89% Calm Calm -- 30.18 in1022.0 mb - 0.00 in0.0 mm 0.00 in0.0 mm
02:45 AM 25.7°F-3.5°C 22.9°F-5.1°C 89% Calm Calm -- 30.18 in1022.0 mb - 0.00 in0.0 mm 0.00 in0.0 mm
03:00 AM 25.5°F-3.6°C 23.0°F-5.0°C 90% Calm Calm -- 30.17 in1021.7 mb - 0.00 in0.0 mm 0.00 in0.0 mm
03:15 AM 25.4°F-3.7°C 22.9°F-5.1°C 90% Calm Calm 1.2 mph1.9 kmh 30.16 in1021.3 mb - 0.00 in0.0 mm 0.00 in0.0 mm
03:30 AM 25.4°F-3.7°C 23.1°F-4.9°C 91% Calm Calm 1.2 mph1.9 kmh 30.15 in1021.0 mb - 0.00 in0.0 mm 0.00 in0.0 mm
03:45 AM 25.4°F-3.7°C 23.2°F-4.9°C 91% Calm Calm -- 30.14 in1020.7 mb - 0.00 in0.0 mm 0.00 in0.0 mm
04:00 AM 25.5°F-3.6°C 23.5°F-4.7°C 92% Calm Calm 1.2 mph1.9 kmh 30.14 in1020.7 mb - 0.00 in0.0 mm 0.00 in0.0 mm
04:15 AM 25.4°F-3.7°C 23.4°F-4.8°C 92% Calm Calm 1.2 mph1.9 kmh 30.13 in1020.3 mb - 0.00 in0.0 mm 0.00 in0.0 mm
04:30 AM 25.6°F-3.6°C 23.6°F-4.7°C 92% Calm Calm 1.2 mph1.9 kmh 30.13 in1020.3 mb - 0.00 in0.0 mm 0.00 in0.0 mm
04:45 AM 25.5°F-3.6°C 23.5°F-4.7°C 92% Calm Calm -- 30.12 in1020.0 mb - 0.00 in0.0 mm 0.00 in0.0 mm
05:00 AM 25.6°F-3.6°C 23.6°F-4.7°C 92% Calm Calm 1.2 mph1.9 kmh 30.11 in1019.6 mb - 0.00 in0.0 mm 0.00 in0.0 mm
05:15 AM 25.5°F-3.6°C 23.5°F-4.7°C 92% Calm Calm -- 30.11 in1019.6 mb - 0.00 in0.0 mm 0.00 in0.0 mm
05:30 AM 25.6°F-3.6°C 23.6°F-4.7°C 92% Calm Calm -- 30.11 in1019.6 mb - 0.00 in0.0 mm 0.00 in0.0 mm
05:45 AM 25.7°F-3.5°C 23.7°F-4.6°C 92% Calm Calm -- 30.11 in1019.6 mb - 0.00 in0.0 mm 0.00 in0.0 mm
06:00 AM 25.8°F-3.4°C 23.8°F-4.6°C 92% Calm Calm -- 30.11 in1019.6 mb - 0.00 in0.0 mm 0.00 in0.0 mm
06:15 AM 25.9°F-3.4°C 23.9°F-4.5°C 92% Calm Calm -- 30.11 in1019.6 mb - 0.00 in0.0 mm 0.00 in0.0 mm
06:30 AM 26.0°F-3.3°C 24.0°F-4.4°C 92% 1.2 mph N1.9 kmh N 2.3 mph3.7 kmh 30.11 in1019.6 mb - 0.00 in0.0 mm 0.00 in0.0 mm
06:45 AM 26.1°F-3.3°C 24.1°F-4.4°C 92% Calm Calm 1.2 mph1.9 kmh 30.11 in1019.6 mb - 0.00 in0.0 mm 0.00 in0.0 mm
07:00 AM 26.3°F-3.2°C 24.3°F-4.3°C 92% Calm Calm -- 30.11 in1019.6 mb - 0.00 in0.0 mm 0.00 in0.0 mm
07:15 AM 26.5°F-3.1°C 24.5°F-4.2°C 92% Calm Calm 1.2 mph1.9 kmh 30.11 in1019.6 mb - 0.00 in0.0 mm 0.00 in0.0 mm
07:30 AM 26.7°F-2.9°C 24.7°F-4.1°C 92% Calm Calm 1.2 mph1.9 kmh 30.11 in1019.6 mb - 0.00 in0.0 mm 0.00 in0.0 mm
07:45 AM 26.8°F-2.9°C 24.8°F-4.0°C 92% 1.2 mph NNE1.9 kmh NNE 2.3 mph3.7 kmh 30.10 in1019.3 mb - 0.00 in0.0 mm 0.00 in0.0 mm
08:00 AM 27.0°F-2.8°C 25.0°F-3.9°C 92% Calm Calm -- 30.10 in1019.3 mb - 0.00 in0.0 mm 0.00 in0.0 mm
08:15 AM 27.4°F-2.6°C 25.4°F-3.7°C 92% Calm Calm 2.3 mph3.7 kmh 30.11 in1019.6 mb - 0.00 in0.0 mm 0.00 in0.0 mm
08:30 AM 27.6°F-2.4°C 25.6°F-3.6°C 92% Calm Calm 1.2 mph1.9 kmh 30.11 in1019.6 mb - 0.00 in0.0 mm 0.00 in0.0 mm
08:45 AM 27.9°F-2.3°C 25.9°F-3.4°C 92% Calm Calm 1.2 mph1.9 kmh 30.11 in1019.6 mb - 0.00 in0.0 mm 0.00 in0.0 mm
09:00 AM 28.2°F-2.1°C 25.9°F-3.4°C 91% Calm Calm -- 30.11 in1019.6 mb - 0.00 in0.0 mm 0.00 in0.0 mm
09:15 AM 29.1°F-1.6°C 26.8°F-2.9°C 91% Calm Calm 1.2 mph1.9 kmh 30.11 in1019.6 mb - 0.00 in0.0 mm 0.00 in0.0 mm
09:30 AM 29.3°F-1.5°C 27.0°F-2.8°C 91% 1.2 mph N1.9 kmh N 1.2 mph1.9 kmh 30.11 in1019.6 mb - 0.00 in0.0 mm 0.00 in0.0 mm
09:45 AM 29.8°F-1.2°C 27.2°F-2.7°C 90% Calm Calm -- 30.11 in1019.6 mb - 0.00 in0.0 mm 0.00 in0.0 mm
10:00 AM 30.7°F-0.7°C 28.1°F-2.2°C 90% Calm Calm -- 30.11 in1019.6 mb - 0.00 in0.0 mm 0.00 in0.0 mm
10:15 AM 31.6°F-0.2°C 28.7°F-1.8°C 89% Calm Calm 1.2 mph1.9 kmh 30.11 in1019.6 mb - 0.00 in0.0 mm 0.00 in0.0 mm
10:30 AM 31.7°F-0.2°C 28.8°F-1.8°C 89% Calm Calm -- 30.12 in1020.0 mb - 0.00 in0.0 mm 0.00 in0.0 mm
10:45 AM 32.1°F0.1°C 29.2°F-1.6°C 89% Calm Calm -- 30.11 in1019.6 mb - 0.00 in0.0 mm 0.00 in0.0 mm
11:00 AM 32.7°F0.4°C 29.8°F-1.2°C 89% Calm Calm -- 30.11 in1019.6 mb - 0.00 in0.0 mm 0.00 in0.0 mm
11:15 AM 32.9°F0.5°C 30.0°F-1.1°C 89% Calm Calm -- 30.10 in1019.3 mb - 0.00 in0.0 mm 0.00 in0.0 mm
11:30 AM 33.5°F0.8°C 30.6°F-0.8°C 89% Calm Calm -- 30.10 in1019.3 mb - 0.01 in0.3 mm 0.01 in0.3 mm
11:45 AM 33.5°F0.8°C 30.6°F-0.8°C 89% Calm Calm -- 30.09 in1019.0 mb - 0.02 in0.5 mm 0.02 in0.5 mm
12:00 PM 34.1°F1.2°C 30.9°F-0.6°C 88% Calm Calm -- 30.09 in1019.0 mb - 0.02 in0.5 mm 0.02 in0.5 mm
12:15 PM 34.4°F1.3°C 31.2°F-0.4°C 88% Calm Calm 1.2 mph1.9 kmh 30.08 in1018.6 mb - 0.02 in0.5 mm 0.02 in0.5 mm
12:30 PM 34.6°F1.4°C 31.4°F-0.3°C 88% Calm Calm -- 30.06 in1017.9 mb - 0.01 in0.3 mm 0.02 in0.5 mm
12:45 PM 34.8°F1.6°C 31.6°F-0.2°C 88% Calm Calm 1.2 mph1.9 kmh 30.06 in1017.9 mb - 0.00 in0.0 mm 0.02 in0.5 mm
01:00 PM 35.0°F1.7°C 31.8°F-0.1°C 88% Calm Calm -- 30.06 in1017.9 mb - 0.00 in0.0 mm 0.02 in0.5 mm
01:15 PM 34.9°F1.6°C 31.7°F-0.2°C 88% Calm Calm 1.2 mph1.9 kmh 30.06 in1017.9 mb - 0.00 in0.0 mm 0.02 in0.5 mm
01:30 PM 35.5°F1.9°C 32.3°F0.2°C 88% Calm Calm -- 30.05 in1017.6 mb - 0.00 in0.0 mm 0.02 in0.5 mm
01:45 PM 36.0°F2.2°C 32.2°F0.1°C 86% Calm Calm -- 30.04 in1017.3 mb - 0.00 in0.0 mm 0.02 in0.5 mm
02:00 PM 36.3°F2.4°C 32.5°F0.3°C 86% Calm Calm 2.3 mph3.7 kmh 30.04 in1017.3 mb - 0.00 in0.0 mm 0.02 in0.5 mm
02:15 PM 36.7°F2.6°C 32.7°F0.4°C 85% Calm Calm 1.2 mph1.9 kmh 30.04 in1017.3 mb - 0.00 in0.0 mm 0.02 in0.5 mm
02:30 PM 36.6°F2.6°C 32.5°F0.3°C 85% Calm Calm -- 30.05 in1017.6 mb - 0.00 in0.0 mm 0.02 in0.5 mm
02:45 PM 36.7°F2.6°C 32.6°F0.3°C 85% Calm Calm 2.3 mph3.7 kmh 30.03 in1016.9 mb - 0.00 in0.0 mm 0.02 in0.5 mm
03:00 PM 36.7°F2.6°C 32.6°F0.3°C 85% Calm Calm -- 30.04 in1017.3 mb - 0.00 in0.0 mm 0.02 in0.5 mm
03:15 PM 36.8°F2.7°C 32.7°F0.4°C 85% Calm Calm 1.2 mph1.9 kmh 30.05 in1017.6 mb - 0.00 in0.0 mm 0.02 in0.5 mm
03:30 PM 36.9°F2.7°C 32.8°F0.4°C 85% Calm Calm 1.2 mph1.9 kmh 30.05 in1017.6 mb - 0.00 in0.0 mm 0.02 in0.5 mm
03:45 PM 36.8°F2.7°C 32.4°F0.2°C 84% 1.2 mph W1.9 kmh W 2.3 mph3.7 kmh 30.06 in1017.9 mb - 0.00 in0.0 mm 0.02 in0.5 mm
04:00 PM 36.4°F2.4°C 32.0°F0.0°C 84% Calm Calm 2.3 mph3.7 kmh 30.07 in1018.3 mb - 0.00 in0.0 mm 0.02 in0.5 mm
04:15 PM 36.2°F2.3°C 32.1°F0.1°C 85% 1.2 mph W1.9 kmh W 3.5 mph5.6 kmh 30.07 in1018.3 mb - 0.00 in0.0 mm 0.02 in0.5 mm
04:30 PM 35.6°F2.0°C 31.6°F-0.2°C 85% 1.2 mph WNW1.9 kmh WNW 2.3 mph3.7 kmh 30.07 in1018.3 mb - 0.00 in0.0 mm 0.02 in0.5 mm
04:45 PM 35.5°F1.9°C 31.7°F-0.2°C 86% Calm Calm 3.5 mph5.6 kmh 30.07 in1018.3 mb - 0.00 in0.0 mm 0.02 in0.5 mm
05:00 PM 35.5°F1.9°C 31.7°F-0.2°C 86% Calm Calm 1.2 mph1.9 kmh 30.06 in1017.9 mb - 0.00 in0.0 mm 0.02 in0.5 mm
05:15 PM 35.4°F1.9°C 31.7°F-0.2°C 86% Calm Calm 2.3 mph3.7 kmh 30.06 in1017.9 mb - 0.00 in0.0 mm 0.02 in0.5 mm
05:30 PM 35.3°F1.8°C 31.8°F-0.1°C 87% Calm Calm -- 30.08 in1018.6 mb - 0.00 in0.0 mm 0.02 in0.5 mm
05:45 PM 35.3°F1.8°C 31.5°F-0.3°C 86% Calm Calm -- 30.08 in1018.6 mb - 0.00 in0.0 mm 0.02 in0.5 mm
06:00 PM 35.2°F1.8°C 31.8°F-0.1°C 87% Calm Calm -- 30.09 in1019.0 mb - 0.00 in0.0 mm 0.02 in0.5 mm
06:15 PM 34.9°F1.6°C 31.4°F-0.3°C 87% Calm Calm 2.3 mph3.7 kmh 30.09 in1019.0 mb - 0.00 in0.0 mm 0.02 in0.5 mm
06:30 PM 34.5°F1.4°C 31.0°F-0.6°C 87% Calm Calm 1.2 mph1.9 kmh 30.09 in1019.0 mb - 0.00 in0.0 mm 0.02 in0.5 mm
06:45 PM 34.1°F1.2°C 30.9°F-0.6°C 88% Calm Calm 1.2 mph1.9 kmh 30.09 in1019.0 mb - 0.00 in0.0 mm 0.02 in0.5 mm
07:00 PM 33.7°F0.9°C 30.5°F-0.8°C 88% Calm Calm 1.2 mph1.9 kmh 30.10 in1019.3 mb - 0.00 in0.0 mm 0.02 in0.5 mm
07:15 PM 33.5°F0.8°C 30.6°F-0.8°C 89% Calm Calm 1.2 mph1.9 kmh 30.10 in1019.3 mb - 0.00 in0.0 mm 0.02 in0.5 mm
07:30 PM 33.2°F0.7°C 30.3°F-0.9°C 89% Calm Calm -- 30.10 in1019.3 mb - 0.00 in0.0 mm 0.02 in0.5 mm
07:45 PM 33.0°F0.6°C 30.1°F-1.1°C 89% Calm Calm 1.2 mph1.9 kmh 30.10 in1019.3 mb - 0.00 in0.0 mm 0.02 in0.5 mm
08:00 PM 32.8°F0.4°C 29.9°F-1.2°C 89% Calm Calm -- 30.11 in1019.6 mb - 0.00 in0.0 mm 0.02 in0.5 mm
08:15 PM 32.9°F0.5°C 29.7°F-1.3°C 88% 1.2 mph WNW1.9 kmh WNW 3.5 mph5.6 kmh 30.11 in1019.6 mb - 0.00 in0.0 mm 0.02 in0.5 mm
08:30 PM 32.7°F0.4°C 29.6°F-1.3°C 88% Calm Calm -- 30.11 in1019.6 mb - 0.00 in0.0 mm 0.02 in0.5 mm
08:45 PM 32.7°F0.4°C 29.5°F-1.4°C 88% Calm Calm -- 30.12 in1020.0 mb - 0.00 in0.0 mm 0.02 in0.5 mm
09:00 PM 32.7°F0.4°C 29.5°F-1.4°C 88% Calm Calm 1.2 mph1.9 kmh 30.12 in1020.0 mb - 0.00 in0.0 mm 0.02 in0.5 mm
09:15 PM 32.5°F0.3°C 29.3°F-1.5°C 88% Calm Calm 1.2 mph1.9 kmh 30.13 in1020.3 mb - 0.00 in0.0 mm 0.02 in0.5 mm
09:30 PM 32.9°F0.5°C 29.7°F-1.3°C 88% Calm Calm 2.3 mph3.7 kmh 30.14 in1020.7 mb - 0.00 in0.0 mm 0.02 in0.5 mm
09:45 PM 33.2°F0.7°C 29.8°F-1.2°C 87% Calm Calm -- 30.15 in1021.0 mb - 0.00 in0.0 mm 0.02 in0.5 mm
10:00 PM 33.2°F0.7°C 29.8°F-1.2°C 87% Calm Calm -- 30.16 in1021.3 mb - 0.00 in0.0 mm 0.02 in0.5 mm
10:15 PM 33.2°F0.7°C 29.8°F-1.2°C 87% Calm Calm -- 30.16 in1021.3 mb - 0.00 in0.0 mm 0.02 in0.5 mm
10:30 PM 33.1°F0.6°C 29.7°F-1.3°C 87% Calm Calm -- 30.16 in1021.3 mb - 0.00 in0.0 mm 0.02 in0.5 mm
10:45 PM 33.9°F1.1°C 29.0°F-1.7°C 82% Calm Calm 1.2 mph1.9 kmh 30.17 in1021.7 mb - 0.00 in0.0 mm 0.02 in0.5 mm
11:00 PM 34.0°F1.1°C 27.9°F-2.3°C 78% Calm Calm 1.2 mph1.9 kmh 30.16 in1021.3 mb - 0.00 in0.0 mm 0.02 in0.5 mm
11:15 PM 33.6°F0.9°C 25.9°F-3.4°C 73% Calm Calm -- 30.16 in1021.3 mb - 0.00 in0.0 mm 0.02 in0.5 mm
11:30 PM 33.1°F0.6°C 25.4°F-3.7°C 73% Calm Calm 1.2 mph1.9 kmh 30.17 in1021.7 mb - 0.00 in0.0 mm 0.02 in0.5 mm
11:45 PM 32.9°F0.5°C 25.5°F-3.6°C 74% Calm Calm 2.3 mph3.7 kmh 30.17 in1021.7 mb - 0.00 in0.0 mm 0.02 in0.5 mm